sensor_id;sensor_type;location;lat;lon;timestamp;temperature;humidity
2042;DHT22;1026;51.460;7.252;2023-09-19T00:01:51;18.90;97.60
2042;DHT22;1026;51.460;7.252;2023-09-19T00:04:19;18.80;97.50
2042;DHT22;1026;51.460;7.252;2023-09-19T00:06:56;18.80;97.50
2042;DHT22;1026;51.460;7.252;2023-09-19T00:09:23;18.80;97.50
2042;DHT22;1026;51.460;7.252;2023-09-19T00:12:06;18.80;97.60
2042;DHT22;1026;51.460;7.252;2023-09-19T00:14:47;18.80;97.60
2042;DHT22;1026;51.460;7.252;2023-09-19T00:17:21;18.70;97.60
2042;DHT22;1026;51.460;7.252;2023-09-19T00:19:55;18.70;97.60
2042;DHT22;1026;51.460;7.252;2023-09-19T00:22:22;18.70;97.60
2042;DHT22;1026;51.460;7.252;2023-09-19T00:24:49;18.70;97.60
2042;DHT22;1026;51.460;7.252;2023-09-19T00:27:24;18.70;97.60
2042;DHT22;1026;51.460;7.252;2023-09-19T00:29:58;18.70;97.60
2042;DHT22;1026;51.460;7.252;2023-09-19T00:32:25;18.70;97.60
2042;DHT22;1026;51.460;7.252;2023-09-19T00:34:58;18.60;97.60
2042;DHT22;1026;51.460;7.252;2023-09-19T00:37:38;18.60;97.60
2042;DHT22;1026;51.460;7.252;2023-09-19T00:40:07;18.60;97.60
2042;DHT22;1026;51.460;7.252;2023-09-19T00:42:49;18.60;97.60
2042;DHT22;1026;51.460;7.252;2023-09-19T00:45:17;18.60;97.60
2042;DHT22;1026;51.460;7.252;2023-09-19T00:47:49;18.60;97.60
2042;DHT22;1026;51.460;7.252;2023-09-19T00:50:24;18.50;97.50
2042;DHT22;1026;51.460;7.252;2023-09-19T00:52:54;18.50;97.50
2042;DHT22;1026;51.460;7.252;2023-09-19T00:55:30;18.50;97.60
2042;DHT22;1026;51.460;7.252;2023-09-19T00:57:59;18.50;97.50
2042;DHT22;1026;51.460;7.252;2023-09-19T01:00:27;18.50;97.60
2042;DHT22;1026;51.460;7.252;2023-09-19T01:03:01;18.50;97.60
2042;DHT22;1026;51.460;7.252;2023-09-19T01:05:28;18.50;97.60
2042;DHT22;1026;51.460;7.252;2023-09-19T01:08:02;18.50;97.60
2042;DHT22;1026;51.460;7.252;2023-09-19T01:10:29;18.40;97.60
2042;DHT22;1026;51.460;7.252;2023-09-19T01:13:35;18.40;97.50
2042;DHT22;1026;51.460;7.252;2023-09-19T01:23:17;18.30;97.50
2042;DHT22;1026;51.460;7.252;2023-09-19T01:29:39;18.30;97.50
2042;DHT22;1026;51.460;7.252;2023-09-19T01:32:08;18.30;97.50
2042;DHT22;1026;51.460;7.252;2023-09-19T01:34:56;18.30;97.50
2042;DHT22;1026;51.460;7.252;2023-09-19T01:37:25;18.30;97.50
2042;DHT22;1026;51.460;7.252;2023-09-19T01:40:13;18.20;97.40
2042;DHT22;1026;51.460;7.252;2023-09-19T01:46:24;18.20;97.50
2042;DHT22;1026;51.460;7.252;2023-09-19T01:52:15;18.20;97.50
2042;DHT22;1026;51.460;7.252;2023-09-19T01:54:56;18.20;97.50
2042;DHT22;1026;51.460;7.252;2023-09-19T01:57:34;18.20;97.50
2042;DHT22;1026;51.460;7.252;2023-09-19T02:00:10;18.10;97.50
2042;DHT22;1026;51.460;7.252;2023-09-19T02:02:47;18.10;97.40
2042;DHT22;1026;51.460;7.252;2023-09-19T02:05:22;18.10;97.50
2042;DHT22;1026;51.460;7.252;2023-09-19T02:07:57;18.10;97.50
2042;DHT22;1026;51.460;7.252;2023-09-19T02:10:32;18.10;97.50
2042;DHT22;1026;51.460;7.252;2023-09-19T02:13:14;18.10;97.50
2042;DHT22;1026;51.460;7.252;2023-09-19T02:15:41;18.10;97.40
2042;DHT22;1026;51.460;7.252;2023-09-19T02:18:08;18.00;97.40
2042;DHT22;1026;51.460;7.252;2023-09-19T02:20:41;18.00;97.40
2042;DHT22;1026;51.460;7.252;2023-09-19T02:23:09;18.10;97.50
2042;DHT22;1026;51.460;7.252;2023-09-19T02:25:36;18.00;97.40
2042;DHT22;1026;51.460;7.252;2023-09-19T02:28:11;18.00;97.70
2042;DHT22;1026;51.460;7.252;2023-09-19T02:30:38;18.00;97.40
2042;DHT22;1026;51.460;7.252;2023-09-19T02:33:05;18.00;97.40
2042;DHT22;1026;51.460;7.252;2023-09-19T02:35:38;18.00;97.40
2042;DHT22;1026;51.460;7.252;2023-09-19T02:38:05;17.90;97.40
2042;DHT22;1026;51.460;7.252;2023-09-19T02:40:40;17.90;97.40
2042;DHT22;1026;51.460;7.252;2023-09-19T02:43:08;17.90;97.40
2042;DHT22;1026;51.460;7.252;2023-09-19T02:45:42;17.90;97.40
2042;DHT22;1026;51.460;7.252;2023-09-19T02:48:09;17.90;97.40
2042;DHT22;1026;51.460;7.252;2023-09-19T02:50:38;17.90;97.40
2042;DHT22;1026;51.460;7.252;2023-09-19T02:53:13;17.80;97.40
2042;DHT22;1026;51.460;7.252;2023-09-19T02:55:40;17.80;97.30
2042;DHT22;1026;51.460;7.252;2023-09-19T02:58:07;17.80;97.30
2042;DHT22;1026;51.460;7.252;2023-09-19T03:00:42;17.80;97.40
2042;DHT22;1026;51.460;7.252;2023-09-19T03:03:09;17.80;97.40
2042;DHT22;1026;51.460;7.252;2023-09-19T03:05:36;17.80;97.40
2042;DHT22;1026;51.460;7.252;2023-09-19T03:08:11;17.70;97.30
2042;DHT22;1026;51.460;7.252;2023-09-19T03:10:48;17.80;97.40
2042;DHT22;1026;51.460;7.252;2023-09-19T03:13:28;17.70;97.40
2042;DHT22;1026;51.460;7.252;2023-09-19T03:15:57;17.70;97.30
2042;DHT22;1026;51.460;7.252;2023-09-19T03:18:25;17.70;97.50
2042;DHT22;1026;51.460;7.252;2023-09-19T03:20:59;17.70;97.70
2042;DHT22;1026;51.460;7.252;2023-09-19T03:23:37;17.70;97.30
2042;DHT22;1026;51.460;7.252;2023-09-19T03:26:05;17.60;97.30
2042;DHT22;1026;51.460;7.252;2023-09-19T03:28:33;17.60;97.30
2042;DHT22;1026;51.460;7.252;2023-09-19T03:31:08;17.60;97.30
2042;DHT22;1026;51.460;7.252;2023-09-19T03:33:35;17.60;97.30
2042;DHT22;1026;51.460;7.252;2023-09-19T03:36:03;17.60;97.30
2042;DHT22;1026;51.460;7.252;2023-09-19T03:38:40;17.60;97.30
2042;DHT22;1026;51.460;7.252;2023-09-19T03:41:07;17.50;97.20
2042;DHT22;1026;51.460;7.252;2023-09-19T03:43:34;17.60;97.30
2042;DHT22;1026;51.460;7.252;2023-09-19T03:46:08;17.60;97.30
2042;DHT22;1026;51.460;7.252;2023-09-19T03:48:35;17.50;97.20
2042;DHT22;1026;51.460;7.252;2023-09-19T03:51:02;17.60;97.30
2042;DHT22;1026;51.460;7.252;2023-09-19T03:53:35;17.50;97.20
2042;DHT22;1026;51.460;7.252;2023-09-19T03:56:09;17.50;97.20
2042;DHT22;1026;51.460;7.252;2023-09-19T03:58:37;17.50;97.20
2042;DHT22;1026;51.460;7.252;2023-09-19T04:01:07;17.50;97.20
2042;DHT22;1026;51.460;7.252;2023-09-19T04:03:41;17.50;97.30
2042;DHT22;1026;51.460;7.252;2023-09-19T04:06:15;17.50;97.20
2042;DHT22;1026;51.460;7.252;2023-09-19T04:08:48;17.50;97.20
2042;DHT22;1026;51.460;7.252;2023-09-19T04:11:22;17.40;97.20
2042;DHT22;1026;51.460;7.252;2023-09-19T04:14:03;17.40;97.20
2042;DHT22;1026;51.460;7.252;2023-09-19T04:16:31;17.40;97.20
2042;DHT22;1026;51.460;7.252;2023-09-19T04:18:58;17.40;97.20
2042;DHT22;1026;51.460;7.252;2023-09-19T04:21:31;17.40;97.20
2042;DHT22;1026;51.460;7.252;2023-09-19T04:23:58;17.40;97.20
2042;DHT22;1026;51.460;7.252;2023-09-19T04:26:32;17.40;97.20
2042;DHT22;1026;51.460;7.252;2023-09-19T04:28:59;17.30;97.10
2042;DHT22;1026;51.460;7.252;2023-09-19T04:31:27;17.30;97.10
2042;DHT22;1026;51.460;7.252;2023-09-19T04:34:02;17.40;97.20
2042;DHT22;1026;51.460;7.252;2023-09-19T04:36:30;17.30;97.20
2042;DHT22;1026;51.460;7.252;2023-09-19T04:39:03;17.30;97.20
2042;DHT22;1026;51.460;7.252;2023-09-19T04:41:34;17.30;97.10
2042;DHT22;1026;51.460;7.252;2023-09-19T04:44:01;17.30;97.10
2042;DHT22;1026;51.460;7.252;2023-09-19T04:46:35;17.20;97.10
2042;DHT22;1026;51.460;7.252;2023-09-19T04:49:02;17.30;97.20
2042;DHT22;1026;51.460;7.252;2023-09-19T04:51:29;17.20;97.10
2042;DHT22;1026;51.460;7.252;2023-09-19T04:54:07;17.20;97.10
2042;DHT22;1026;51.460;7.252;2023-09-19T04:56:40;17.20;97.10
2042;DHT22;1026;51.460;7.252;2023-09-19T04:59:08;17.20;97.10
2042;DHT22;1026;51.460;7.252;2023-09-19T05:01:43;17.20;97.10
2042;DHT22;1026;51.460;7.252;2023-09-19T05:04:10;17.20;97.10
2042;DHT22;1026;51.460;7.252;2023-09-19T05:06:44;17.20;97.20
2042;DHT22;1026;51.460;7.252;2023-09-19T05:09:12;17.20;97.10
2042;DHT22;1026;51.460;7.252;2023-09-19T05:11:40;17.10;97.10
2042;DHT22;1026;51.460;7.252;2023-09-19T05:14:20;17.10;97.10
2042;DHT22;1026;51.460;7.252;2023-09-19T05:16:54;17.20;97.10
2042;DHT22;1026;51.460;7.252;2023-09-19T05:19:27;17.10;97.10
2042;DHT22;1026;51.460;7.252;2023-09-19T05:21:54;17.10;97.10
2042;DHT22;1026;51.460;7.252;2023-09-19T05:24:21;17.10;97.10
2042;DHT22;1026;51.460;7.252;2023-09-19T05:26:56;17.10;97.10
2042;DHT22;1026;51.460;7.252;2023-09-19T05:29:23;17.10;97.00
2042;DHT22;1026;51.460;7.252;2023-09-19T05:31:50;17.10;97.10
2042;DHT22;1026;51.460;7.252;2023-09-19T05:34:23;17.10;97.10
2042;DHT22;1026;51.460;7.252;2023-09-19T05:37:01;17.00;97.00
2042;DHT22;1026;51.460;7.252;2023-09-19T05:39:28;17.00;97.00
2042;DHT22;1026;51.460;7.252;2023-09-19T05:42:01;17.00;97.10
2042;DHT22;1026;51.460;7.252;2023-09-19T05:44:28;17.00;97.00
2042;DHT22;1026;51.460;7.252;2023-09-19T05:46:55;17.10;97.10
2042;DHT22;1026;51.460;7.252;2023-09-19T05:49:30;17.00;97.00
2042;DHT22;1026;51.460;7.252;2023-09-19T05:51:57;17.00;97.00
2042;DHT22;1026;51.460;7.252;2023-09-19T05:54:32;17.00;97.00
2042;DHT22;1026;51.460;7.252;2023-09-19T05:57:01;17.00;97.00
2042;DHT22;1026;51.460;7.252;2023-09-19T05:59:28;17.00;97.00
2042;DHT22;1026;51.460;7.252;2023-09-19T06:02:02;17.00;97.10
2042;DHT22;1026;51.460;7.252;2023-09-19T06:04:39;17.00;97.00
2042;DHT22;1026;51.460;7.252;2023-09-19T06:07:14;16.90;96.90
2042;DHT22;1026;51.460;7.252;2023-09-19T06:09:50;16.90;96.90
2042;DHT22;1026;51.460;7.252;2023-09-19T06:12:30;16.90;97.00
2042;DHT22;1026;51.460;7.252;2023-09-19T06:15:14;16.90;97.00
2042;DHT22;1026;51.460;7.252;2023-09-19T06:17:50;16.90;97.00
2042;DHT22;1026;51.460;7.252;2023-09-19T06:20:17;16.90;96.90
2042;DHT22;1026;51.460;7.252;2023-09-19T06:22:53;16.70;94.10
2042;DHT22;1026;51.460;7.252;2023-09-19T06:25:20;16.70;95.00
2042;DHT22;1026;51.460;7.252;2023-09-19T06:27:54;16.80;95.30
2042;DHT22;1026;51.460;7.252;2023-09-19T06:30:30;16.80;95.50
2042;DHT22;1026;51.460;7.252;2023-09-19T06:32:58;16.80;95.70
2042;DHT22;1026;51.460;7.252;2023-09-19T06:35:27;16.80;95.80
2042;DHT22;1026;51.460;7.252;2023-09-19T06:38:03;16.80;95.90
2042;DHT22;1026;51.460;7.252;2023-09-19T06:40:31;16.80;95.90
2042;DHT22;1026;51.460;7.252;2023-09-19T06:43:05;16.80;96.00
2042;DHT22;1026;51.460;7.252;2023-09-19T06:45:32;16.80;96.00
2042;DHT22;1026;51.460;7.252;2023-09-19T06:48:06;16.80;96.10
2042;DHT22;1026;51.460;7.252;2023-09-19T06:50:33;16.80;96.10
2042;DHT22;1026;51.460;7.252;2023-09-19T06:53:01;16.80;96.10
2042;DHT22;1026;51.460;7.252;2023-09-19T06:55:36;16.80;94.30
2042;DHT22;1026;51.460;7.252;2023-09-19T06:58:03;16.70;94.80
2042;DHT22;1026;51.460;7.252;2023-09-19T07:00:33;16.80;95.30
2042;DHT22;1026;51.460;7.252;2023-09-19T07:03:07;16.80;95.40
2042;DHT22;1026;51.460;7.252;2023-09-19T07:05:39;16.80;95.50
2042;DHT22;1026;51.460;7.252;2023-09-19T07:08:14;16.80;95.60
2042;DHT22;1026;51.460;7.252;2023-09-19T07:10:47;16.80;95.60
2042;DHT22;1026;51.460;7.252;2023-09-19T07:13:25;16.80;95.70
2042;DHT22;1026;51.460;7.252;2023-09-19T07:15:59;16.80;95.70
2042;DHT22;1026;51.460;7.252;2023-09-19T07:18:33;16.80;95.80
2042;DHT22;1026;51.460;7.252;2023-09-19T07:21:06;16.80;95.90
2042;DHT22;1026;51.460;7.252;2023-09-19T07:23:33;16.80;95.90
2042;DHT22;1026;51.460;7.252;2023-09-19T07:26:08;16.70;95.90
2042;DHT22;1026;51.460;7.252;2023-09-19T07:28:35;16.80;95.90
2042;DHT22;1026;51.460;7.252;2023-09-19T07:31:09;16.80;96.00
2042;DHT22;1026;51.460;7.252;2023-09-19T07:33:36;16.80;96.00
2042;DHT22;1026;51.460;7.252;2023-09-19T07:36:04;16.80;96.00
2042;DHT22;1026;51.460;7.252;2023-09-19T07:38:37;16.80;96.00
2042;DHT22;1026;51.460;7.252;2023-09-19T07:41:10;16.70;96.00
2042;DHT22;1026;51.460;7.252;2023-09-19T07:43:37;16.80;96.10
2042;DHT22;1026;51.460;7.252;2023-09-19T07:46:08;16.80;96.10
2042;DHT22;1026;51.460;7.252;2023-09-19T07:48:44;16.80;96.10
2042;DHT22;1026;51.460;7.252;2023-09-19T07:51:21;16.80;96.10
2042;DHT22;1026;51.460;7.252;2023-09-19T07:53:48;16.80;96.10
2042;DHT22;1026;51.460;7.252;2023-09-19T07:56:21;16.80;96.10
2042;DHT22;1026;51.460;7.252;2023-09-19T07:58:49;16.80;96.10
2042;DHT22;1026;51.460;7.252;2023-09-19T08:01:24;16.80;96.10
2042;DHT22;1026;51.460;7.252;2023-09-19T08:03:51;16.70;96.10
2042;DHT22;1026;51.460;7.252;2023-09-19T08:06:18;16.80;96.20
2042;DHT22;1026;51.460;7.252;2023-09-19T08:08:53;16.80;96.20
2042;DHT22;1026;51.460;7.252;2023-09-19T08:11:34;16.80;96.20
2042;DHT22;1026;51.460;7.252;2023-09-19T08:14:14;16.80;96.20
2042;DHT22;1026;51.460;7.252;2023-09-19T08:16:47;16.80;96.20
2042;DHT22;1026;51.460;7.252;2023-09-19T08:19:21;16.80;96.20
2042;DHT22;1026;51.460;7.252;2023-09-19T08:21:50;16.80;96.20
2042;DHT22;1026;51.460;7.252;2023-09-19T08:24:17;16.70;96.20
2042;DHT22;1026;51.460;7.252;2023-09-19T08:26:51;16.80;96.20
2042;DHT22;1026;51.460;7.252;2023-09-19T08:29:18;16.80;96.20
2042;DHT22;1026;51.460;7.252;2023-09-19T08:31:45;16.80;96.20
2042;DHT22;1026;51.460;7.252;2023-09-19T08:34:22;16.80;96.20
2042;DHT22;1026;51.460;7.252;2023-09-19T08:36:54;16.70;96.20
2042;DHT22;1026;51.460;7.252;2023-09-19T08:39:31;16.80;96.20
2042;DHT22;1026;51.460;7.252;2023-09-19T08:42:07;16.80;96.30
2042;DHT22;1026;51.460;7.252;2023-09-19T08:44:37;16.80;96.20
2042;DHT22;1026;51.460;7.252;2023-09-19T08:47:20;16.80;96.50
2042;DHT22;1026;51.460;7.252;2023-09-19T08:50:27;16.80;96.30
2042;DHT22;1026;51.460;7.252;2023-09-19T08:53:02;16.80;96.30
2042;DHT22;1026;51.460;7.252;2023-09-19T08:55:32;16.80;96.20
2042;DHT22;1026;51.460;7.252;2023-09-19T08:58:10;16.80;96.20
2042;DHT22;1026;51.460;7.252;2023-09-19T09:00:37;16.80;96.20
2042;DHT22;1026;51.460;7.252;2023-09-19T09:03:16;16.80;96.30
2042;DHT22;1026;51.460;7.252;2023-09-19T09:05:46;16.80;96.20
2042;DHT22;1026;51.460;7.252;2023-09-19T09:08:14;16.80;96.20
2042;DHT22;1026;51.460;7.252;2023-09-19T09:10:47;16.80;96.20
2042;DHT22;1026;51.460;7.252;2023-09-19T09:13:15;16.80;96.30
2042;DHT22;1026;51.460;7.252;2023-09-19T09:15:55;16.80;96.20
2042;DHT22;1026;51.460;7.252;2023-09-19T09:18:29;16.80;96.30
2042;DHT22;1026;51.460;7.252;2023-09-19T09:21:06;16.80;96.20
2042;DHT22;1026;51.460;7.252;2023-09-19T09:23:33;16.80;96.30
2042;DHT22;1026;51.460;7.252;2023-09-19T09:26:07;16.80;96.20
2042;DHT22;1026;51.460;7.252;2023-09-19T09:28:44;16.90;96.30
2042;DHT22;1026;51.460;7.252;2023-09-19T09:31:24;16.90;96.20
2042;DHT22;1026;51.460;7.252;2023-09-19T09:33:55;16.90;96.20
2042;DHT22;1026;51.460;7.252;2023-09-19T09:36:38;16.80;96.20
2042;DHT22;1026;51.460;7.252;2023-09-19T09:39:12;16.90;96.20
2042;DHT22;1026;51.460;7.252;2023-09-19T09:41:46;16.90;96.10
2042;DHT22;1026;51.460;7.252;2023-09-19T09:44:20;16.90;96.20
2042;DHT22;1026;51.460;7.252;2023-09-19T09:46:48;16.90;96.20
2042;DHT22;1026;51.460;7.252;2023-09-19T09:49:48;16.90;96.10
2042;DHT22;1026;51.460;7.252;2023-09-19T09:52:21;16.90;96.10
2042;DHT22;1026;51.460;7.252;2023-09-19T09:55:01;17.00;96.10
2042;DHT22;1026;51.460;7.252;2023-09-19T09:57:33;16.90;96.10
2042;DHT22;1026;51.460;7.252;2023-09-19T10:00:07;17.00;96.10
2042;DHT22;1026;51.460;7.252;2023-09-19T10:02:43;17.00;96.10
2042;DHT22;1026;51.460;7.252;2023-09-19T10:08:11;17.00;96.00
2042;DHT22;1026;51.460;7.252;2023-09-19T10:10:40;17.00;96.00
2042;DHT22;1026;51.460;7.252;2023-09-19T10:13:38;17.00;96.00
2042;DHT22;1026;51.460;7.252;2023-09-19T10:16:10;17.00;96.00
2042;DHT22;1026;51.460;7.252;2023-09-19T10:18:44;17.00;95.90
2042;DHT22;1026;51.460;7.252;2023-09-19T10:21:20;17.00;96.00
2042;DHT22;1026;51.460;7.252;2023-09-19T10:23:55;17.00;96.00
2042;DHT22;1026;51.460;7.252;2023-09-19T10:26:23;17.10;96.00
2042;DHT22;1026;51.460;7.252;2023-09-19T10:28:52;17.10;96.00
2042;DHT22;1026;51.460;7.252;2023-09-19T10:31:28;17.00;95.90
2042;DHT22;1026;51.460;7.252;2023-09-19T10:33:57;17.00;95.90
2042;DHT22;1026;51.460;7.252;2023-09-19T10:36:33;17.00;95.90
2042;DHT22;1026;51.460;7.252;2023-09-19T10:39:03;17.10;95.90
2042;DHT22;1026;51.460;7.252;2023-09-19T10:41:42;17.10;95.90
2042;DHT22;1026;51.460;7.252;2023-09-19T10:44:12;17.10;95.90
2042;DHT22;1026;51.460;7.252;2023-09-19T10:46:47;17.20;95.90
2042;DHT22;1026;51.460;7.252;2023-09-19T10:49:14;17.10;96.10
2042;DHT22;1026;51.460;7.252;2023-09-19T10:51:43;17.10;95.80
2042;DHT22;1026;51.460;7.252;2023-09-19T10:54:20;17.10;95.80
2042;DHT22;1026;51.460;7.252;2023-09-19T10:56:54;17.10;95.80
2042;DHT22;1026;51.460;7.252;2023-09-19T10:59:28;17.10;96.00
2042;DHT22;1026;51.460;7.252;2023-09-19T11:02:17;17.20;95.80
2042;DHT22;1026;51.460;7.252;2023-09-19T11:04:45;17.20;95.70
2042;DHT22;1026;51.460;7.252;2023-09-19T11:07:21;17.20;95.70
2042;DHT22;1026;51.460;7.252;2023-09-19T11:09:55;17.20;96.00
2042;DHT22;1026;51.460;7.252;2023-09-19T11:12:51;17.20;95.60
2042;DHT22;1026;51.460;7.252;2023-09-19T11:18:59;17.20;95.60
2042;DHT22;1026;51.460;7.252;2023-09-19T11:21:41;17.20;95.40
2042;DHT22;1026;51.460;7.252;2023-09-19T11:24:32;17.20;95.60
2042;DHT22;1026;51.460;7.252;2023-09-19T11:27:13;17.20;95.60
2042;DHT22;1026;51.460;7.252;2023-09-19T11:29:47;17.20;95.60
2042;DHT22;1026;51.460;7.252;2023-09-19T11:32:15;17.20;95.60
2042;DHT22;1026;51.460;7.252;2023-09-19T11:34:45;17.30;95.60
2042;DHT22;1026;51.460;7.252;2023-09-19T11:37:59;17.30;95.60
2042;DHT22;1026;51.460;7.252;2023-09-19T11:40:27;17.30;95.60
2042;DHT22;1026;51.460;7.252;2023-09-19T11:43:30;17.30;95.50
2042;DHT22;1026;51.460;7.252;2023-09-19T11:46:01;17.30;95.50
2042;DHT22;1026;51.460;7.252;2023-09-19T11:48:35;17.30;95.50
2042;DHT22;1026;51.460;7.252;2023-09-19T11:51:13;17.30;95.50
2042;DHT22;1026;51.460;7.252;2023-09-19T11:53:57;17.30;95.40
2042;DHT22;1026;51.460;7.252;2023-09-19T11:56:28;17.30;95.40
2042;DHT22;1026;51.460;7.252;2023-09-19T11:59:02;17.30;95.40
2042;DHT22;1026;51.460;7.252;2023-09-19T12:01:31;17.40;95.50
2042;DHT22;1026;51.460;7.252;2023-09-19T12:04:01;17.40;95.50
2042;DHT22;1026;51.460;7.252;2023-09-19T12:06:41;17.40;95.50
2042;DHT22;1026;51.460;7.252;2023-09-19T12:09:13;17.40;95.50
2042;DHT22;1026;51.460;7.252;2023-09-19T12:11:56;17.40;95.50
2042;DHT22;1026;51.460;7.252;2023-09-19T12:14:38;17.40;95.50
2042;DHT22;1026;51.460;7.252;2023-09-19T12:17:12;17.40;95.40
2042;DHT22;1026;51.460;7.252;2023-09-19T12:19:49;17.40;95.20
2042;DHT22;1026;51.460;7.252;2023-09-19T12:22:23;17.50;95.30
2042;DHT22;1026;51.460;7.252;2023-09-19T12:25:06;17.50;95.30
2042;DHT22;1026;51.460;7.252;2023-09-19T12:27:45;17.50;95.30
2042;DHT22;1026;51.460;7.252;2023-09-19T12:30:27;17.50;95.30
2042;DHT22;1026;51.460;7.252;2023-09-19T12:33:02;17.50;95.30
2042;DHT22;1026;51.460;7.252;2023-09-19T12:35:31;17.50;95.30
2042;DHT22;1026;51.460;7.252;2023-09-19T12:38:08;17.50;95.30
2042;DHT22;1026;51.460;7.252;2023-09-19T12:40:38;17.50;95.10
2042;DHT22;1026;51.460;7.252;2023-09-19T12:43:06;17.60;94.80
2042;DHT22;1026;51.460;7.252;2023-09-19T12:45:42;17.60;95.00
2042;DHT22;1026;51.460;7.252;2023-09-19T12:48:22;17.70;91.60
2042;DHT22;1026;51.460;7.252;2023-09-19T12:51:06;17.70;92.20
2042;DHT22;1026;51.460;7.252;2023-09-19T12:53:39;17.70;92.90
2042;DHT22;1026;51.460;7.252;2023-09-19T12:56:16;17.70;93.50
2042;DHT22;1026;51.460;7.252;2023-09-19T12:59:03;17.70;93.50
2042;DHT22;1026;51.460;7.252;2023-09-19T13:01:36;17.70;93.40
2042;DHT22;1026;51.460;7.252;2023-09-19T13:04:33;17.70;93.70
2042;DHT22;1026;51.460;7.252;2023-09-19T13:07:08;17.70;93.60
2042;DHT22;1026;51.460;7.252;2023-09-19T13:10:05;17.70;93.80
2042;DHT22;1026;51.460;7.252;2023-09-19T13:12:46;17.70;93.80
2042;DHT22;1026;51.460;7.252;2023-09-19T13:15:15;17.80;93.60
2042;DHT22;1026;51.460;7.252;2023-09-19T13:17:59;17.90;93.60
2042;DHT22;1026;51.460;7.252;2023-09-19T13:20:29;17.80;93.60
2042;DHT22;1026;51.460;7.252;2023-09-19T13:22:58;17.80;93.70
2042;DHT22;1026;51.460;7.252;2023-09-19T13:25:34;17.80;93.50
2042;DHT22;1026;51.460;7.252;2023-09-19T13:28:05;17.90;93.50
2042;DHT22;1026;51.460;7.252;2023-09-19T13:30:37;17.90;93.60
2042;DHT22;1026;51.460;7.252;2023-09-19T13:33:15;17.90;93.50
2042;DHT22;1026;51.460;7.252;2023-09-19T13:35:54;17.90;93.60
2042;DHT22;1026;51.460;7.252;2023-09-19T13:38:23;17.90;93.70
2042;DHT22;1026;51.460;7.252;2023-09-19T13:40:57;18.00;93.90
2042;DHT22;1026;51.460;7.252;2023-09-19T13:43:26;17.90;93.50
2042;DHT22;1026;51.460;7.252;2023-09-19T13:45:53;18.00;93.60
2042;DHT22;1026;51.460;7.252;2023-09-19T13:48:26;17.90;93.60
2042;DHT22;1026;51.460;7.252;2023-09-19T13:50:54;18.00;93.70
2042;DHT22;1026;51.460;7.252;2023-09-19T13:53:29;18.00;93.50
2042;DHT22;1026;51.460;7.252;2023-09-19T13:55:56;18.00;93.40
2042;DHT22;1026;51.460;7.252;2023-09-19T13:58:30;18.00;93.50
2042;DHT22;1026;51.460;7.252;2023-09-19T14:01:00;18.00;93.10
2042;DHT22;1026;51.460;7.252;2023-09-19T14:03:27;18.00;93.10
2042;DHT22;1026;51.460;7.252;2023-09-19T14:06:01;18.10;93.50
2042;DHT22;1026;51.460;7.252;2023-09-19T14:08:28;18.10;93.20
2042;DHT22;1026;51.460;7.252;2023-09-19T14:11:09;18.10;93.10
2042;DHT22;1026;51.460;7.252;2023-09-19T14:13:36;18.10;93.20
2042;DHT22;1026;51.460;7.252;2023-09-19T14:16:30;18.10;93.10
2042;DHT22;1026;51.460;7.252;2023-09-19T14:19:04;18.10;93.10
2042;DHT22;1026;51.460;7.252;2023-09-19T14:21:31;18.10;93.10
2042;DHT22;1026;51.460;7.252;2023-09-19T14:23:59;18.20;91.30
2042;DHT22;1026;51.460;7.252;2023-09-19T14:26:32;18.20;91.80
2042;DHT22;1026;51.460;7.252;2023-09-19T14:28:59;18.20;92.20
2042;DHT22;1026;51.460;7.252;2023-09-19T14:31:34;18.20;92.20
2042;DHT22;1026;51.460;7.252;2023-09-19T14:34:03;18.20;92.40
2042;DHT22;1026;51.460;7.252;2023-09-19T14:36:30;18.20;92.30
2042;DHT22;1026;51.460;7.252;2023-09-19T14:39:04;18.20;92.40
2042;DHT22;1026;51.460;7.252;2023-09-19T14:41:32;18.20;92.50
2042;DHT22;1026;51.460;7.252;2023-09-19T14:43:59;18.20;92.60
2042;DHT22;1026;51.460;7.252;2023-09-19T14:46:32;18.20;92.70
2042;DHT22;1026;51.460;7.252;2023-09-19T14:48:59;18.20;92.80
2042;DHT22;1026;51.460;7.252;2023-09-19T14:51:29;18.30;92.90
2042;DHT22;1026;51.460;7.252;2023-09-19T14:54:03;18.30;92.90
2042;DHT22;1026;51.460;7.252;2023-09-19T14:56:37;18.30;92.70
2042;DHT22;1026;51.460;7.252;2023-09-19T14:59:04;18.30;92.70
2042;DHT22;1026;51.460;7.252;2023-09-19T15:01:31;18.30;92.80
2042;DHT22;1026;51.460;7.252;2023-09-19T15:04:05;18.30;92.50
2042;DHT22;1026;51.460;7.252;2023-09-19T15:06:33;18.30;92.60
2042;DHT22;1026;51.460;7.252;2023-09-19T15:09:07;18.30;92.80
2042;DHT22;1026;51.460;7.252;2023-09-19T15:11:36;18.30;92.60
2042;DHT22;1026;51.460;7.252;2023-09-19T15:14:09;18.30;92.70
2042;DHT22;1026;51.460;7.252;2023-09-19T15:16:50;18.30;92.90
2042;DHT22;1026;51.460;7.252;2023-09-19T15:19:23;18.30;92.60
2042;DHT22;1026;51.460;7.252;2023-09-19T15:21:50;18.30;92.70
2042;DHT22;1026;51.460;7.252;2023-09-19T15:24:17;18.40;92.80
2042;DHT22;1026;51.460;7.252;2023-09-19T15:26:51;18.30;92.90
2042;DHT22;1026;51.460;7.252;2023-09-19T15:29:18;18.40;92.70
2042;DHT22;1026;51.460;7.252;2023-09-19T15:31:46;18.40;93.00
2042;DHT22;1026;51.460;7.252;2023-09-19T15:34:20;18.40;92.70
2042;DHT22;1026;51.460;7.252;2023-09-19T15:36:54;18.40;92.60
2042;DHT22;1026;51.460;7.252;2023-09-19T15:39:21;18.40;92.80
2042;DHT22;1026;51.460;7.252;2023-09-19T15:41:51;18.40;93.00
2042;DHT22;1026;51.460;7.252;2023-09-19T15:44:25;18.40;92.80
2042;DHT22;1026;51.460;7.252;2023-09-19T15:47:00;18.40;92.90
2042;DHT22;1026;51.460;7.252;2023-09-19T15:49:34;18.40;93.00
2042;DHT22;1026;51.460;7.252;2023-09-19T15:52:02;18.40;92.50
2042;DHT22;1026;51.460;7.252;2023-09-19T15:54:30;18.40;92.50
2042;DHT22;1026;51.460;7.252;2023-09-19T15:57:06;18.40;92.60
2042;DHT22;1026;51.460;7.252;2023-09-19T15:59:35;18.40;92.60
2042;DHT22;1026;51.460;7.252;2023-09-19T16:02:02;18.40;92.50
2042;DHT22;1026;51.460;7.252;2023-09-19T16:04:37;18.50;92.60
2042;DHT22;1026;51.460;7.252;2023-09-19T16:07:05;18.50;92.30
2042;DHT22;1026;51.460;7.252;2023-09-19T16:09:34;18.50;92.40
2042;DHT22;1026;51.460;7.252;2023-09-19T16:12:08;18.50;92.50
2042;DHT22;1026;51.460;7.252;2023-09-19T16:14:48;18.50;92.60
2042;DHT22;1026;51.460;7.252;2023-09-19T16:17:22;18.50;92.40
2042;DHT22;1026;51.460;7.252;2023-09-19T16:19:50;18.60;92.10
2042;DHT22;1026;51.460;7.252;2023-09-19T16:22:23;18.50;92.90
2042;DHT22;1026;51.460;7.252;2023-09-19T16:24:50;18.50;92.60
2042;DHT22;1026;51.460;7.252;2023-09-19T16:27:17;18.50;92.60
2042;DHT22;1026;51.460;7.252;2023-09-19T16:29:54;18.50;92.70
2042;DHT22;1026;51.460;7.252;2023-09-19T16:32:21;18.50;92.80
2042;DHT22;1026;51.460;7.252;2023-09-19T16:34:54;18.50;92.90
2042;DHT22;1026;51.460;7.252;2023-09-19T16:37:21;18.50;92.80
2042;DHT22;1026;51.460;7.252;2023-09-19T16:39:49;18.50;92.70
2042;DHT22;1026;51.460;7.252;2023-09-19T16:42:23;18.50;93.20
2042;DHT22;1026;51.460;7.252;2023-09-19T16:44:51;18.50;93.20
2042;DHT22;1026;51.460;7.252;2023-09-19T16:47:18;18.50;92.90
2042;DHT22;1026;51.460;7.252;2023-09-19T16:49:52;18.50;93.20
2042;DHT22;1026;51.460;7.252;2023-09-19T16:52:26;18.50;92.80
2042;DHT22;1026;51.460;7.252;2023-09-19T16:54:53;18.50;92.90
2042;DHT22;1026;51.460;7.252;2023-09-19T16:57:26;18.50;93.40
2042;DHT22;1026;51.460;7.252;2023-09-19T16:59:53;18.50;93.10
2042;DHT22;1026;51.460;7.252;2023-09-19T17:02:26;18.50;92.80
2042;DHT22;1026;51.460;7.252;2023-09-19T17:04:55;18.50;93.20